Rackwick, United Kingdom
Current Conditions -  °F | °C
As of 4:50 PM on Tuesday 27 Jan 2015 (Local Time) from EGPA Reporting Station
Broken Clouds Broken Clouds  
Wind Chill: 43°   Ceiling: 2200
Heat Index: 48°   Visibility: 6mi
Dew Point: 43°   Wind: 13mph
Humidity: 82%   Direction: 230°SW
Pressure: 29.77"   Gusts: NA
Location:  58.87°N, 3.38°W
Report Text: EGPA 271650Z 23011KT 9999 FEW010 SCT017 BKN022 09/06 Q1008
Loading
Personal Weather Stations






























Interactive Weather Map New forecast layout! Learn more

10-Day Weather Forecast

Advertisements
Track Severe Weather on mobile